createdAt,value
2023-02-16T00:00:30.879Z,1011.24
2023-02-16T00:01:02.391Z,1011.24
2023-02-16T00:01:34.199Z,1011.24
2023-02-16T00:02:06.835Z,1011.31
2023-02-16T00:02:34.579Z,1011.31
2023-02-16T00:02:54.798Z,1011.31
2023-02-16T00:03:26.205Z,1011.31
2023-02-16T00:03:42.737Z,1011.24
2023-02-16T00:04:14.100Z,1011.24
2023-02-16T00:04:36.393Z,1011.14
2023-02-16T00:05:03.491Z,1011.14
2023-02-16T00:05:34.088Z,1011.14
2023-02-16T00:06:07.087Z,1011.24
2023-02-16T00:06:34.530Z,1011.14
2023-02-16T00:06:54.220Z,1011.14
2023-02-16T00:07:26.098Z,1011.14
2023-02-16T00:07:42.659Z,1011.24
2023-02-16T00:08:14.083Z,1011.24
2023-02-16T00:08:35.563Z,1011.04
2023-02-16T00:09:02.157Z,1011.04
2023-02-16T00:09:34.099Z,1011.04
2023-02-16T00:10:07.054Z,1010.94
2023-02-16T00:10:34.618Z,1011.14
2023-02-16T00:10:54.384Z,1011.14
2023-02-16T00:11:26.148Z,1011.14
2023-02-16T00:11:58.101Z,1011.31
2023-02-16T00:12:30.767Z,1011.31
2023-02-16T00:13:02.122Z,1011.24
2023-02-16T00:13:34.542Z,1011.24
2023-02-16T00:14:06.688Z,1011.24
2023-02-16T00:14:34.541Z,1011.24
2023-02-16T00:14:54.407Z,1011.24
2023-02-16T00:15:26.766Z,1011.24
2023-02-16T00:15:58.461Z,1010.94
2023-02-16T00:16:30.180Z,1010.94
2023-02-16T00:17:02.146Z,1011.04
2023-02-16T00:17:34.200Z,1011.04
2023-02-16T00:18:06.687Z,1011.04
2023-02-16T00:18:34.514Z,1011.04
2023-02-16T00:18:54.772Z,1011.04
2023-02-16T00:19:26.119Z,1011.04
2023-02-16T00:19:58.100Z,1011.14
2023-02-16T00:20:30.448Z,1011.14
2023-02-16T00:21:02.506Z,1011.14
2023-02-16T00:21:34.167Z,1011.14
2023-02-16T00:22:07.093Z,1011.14
2023-02-16T00:22:34.522Z,1011.24
2023-02-16T00:22:54.148Z,1011.24
2023-02-16T00:23:26.108Z,1011.24
2023-02-16T00:23:58.185Z,1011.14
2023-02-16T00:24:30.118Z,1011.14
2023-02-16T00:25:03.588Z,1011.14
2023-02-16T00:25:34.115Z,1011.14
2023-02-16T00:26:06.719Z,1011.14
2023-02-16T00:26:34.853Z,1010.84
2023-02-16T00:26:54.137Z,1010.84
2023-02-16T00:27:26.153Z,1010.84
2023-02-16T00:27:58.116Z,1011.14
2023-02-16T00:28:30.888Z,1011.14
2023-02-16T00:29:02.088Z,1011.14
2023-02-16T00:29:34.080Z,1011.14
2023-02-16T00:30:08.851Z,1010.73
2023-02-16T00:30:35.195Z,1011.04
2023-02-16T00:30:54.617Z,1011.04
2023-02-16T00:31:26.300Z,1011.04
2023-02-16T00:31:58.308Z,1010.84
2023-02-16T00:32:30.161Z,1010.84
2023-02-16T00:33:03.096Z,1010.94
2023-02-16T00:33:34.126Z,1010.94
2023-02-16T00:34:06.746Z,1010.84
2023-02-16T00:34:34.536Z,1010.84
2023-02-16T00:34:54.828Z,1010.84
2023-02-16T00:35:26.422Z,1010.84
2023-02-16T00:35:58.421Z,1011.04
2023-02-16T00:36:30.141Z,1011.04
2023-02-16T00:37:02.150Z,1011.14
2023-02-16T00:37:34.503Z,1011.14
2023-02-16T00:38:07.923Z,1011.04
2023-02-16T00:38:34.522Z,1011.14
2023-02-16T00:38:54.152Z,1011.14
2023-02-16T00:39:26.206Z,1011.14
2023-02-16T00:39:58.141Z,1010.94
2023-02-16T00:40:30.461Z,1010.94
2023-02-16T00:41:02.327Z,1011.04
2023-02-16T00:41:34.719Z,1011.04
2023-02-16T00:42:06.831Z,1011.04
2023-02-16T00:42:34.529Z,1011.14
2023-02-16T00:42:55.691Z,1011.14
2023-02-16T00:43:26.172Z,1011.14
2023-02-16T00:43:58.139Z,1011.14
2023-02-16T00:44:30.863Z,1011.14
2023-02-16T00:45:03.869Z,1011.24
2023-02-16T00:45:34.483Z,1011.24
2023-02-16T00:46:08.081Z,1011.24
2023-02-16T00:46:34.584Z,1011.24
2023-02-16T00:46:54.166Z,1011.24
2023-02-16T00:47:26.216Z,1011.24
2023-02-16T00:47:58.150Z,1011.04
2023-02-16T00:48:30.141Z,1011.04
2023-02-16T00:49:02.137Z,1011.14
2023-02-16T00:49:34.768Z,1011.14
2023-02-16T00:50:07.191Z,1011.14
2023-02-16T00:50:34.523Z,1011.31
2023-02-16T00:50:55.134Z,1011.31
2023-02-16T00:51:26.620Z,1011.31
2023-02-16T00:51:58.140Z,1011.04
2023-02-16T00:52:30.220Z,1011.04
2023-02-16T00:53:02.134Z,1011.31
2023-02-16T00:53:34.109Z,1011.31
2023-02-16T00:54:07.101Z,1011.14
2023-02-16T00:54:34.535Z,1011.14
2023-02-16T00:54:54.170Z,1011.14
2023-02-16T00:55:26.520Z,1011.14
2023-02-16T00:55:58.174Z,1011.24
2023-02-16T00:56:30.395Z,1011.24
2023-02-16T00:57:02.118Z,1011.14
2023-02-16T00:57:34.175Z,1011.14
2023-02-16T00:58:06.716Z,1011.14
2023-02-16T00:58:34.523Z,1011.14
2023-02-16T00:58:54.143Z,1011.14
2023-02-16T00:59:26.147Z,1011.14
2023-02-16T00:59:58.145Z,1011.14
2023-02-16T01:00:31.513Z,1011.14
2023-02-16T01:01:02.561Z,1011.24
2023-02-16T01:01:34.156Z,1011.24
2023-02-16T01:02:06.784Z,1011.31
2023-02-16T01:02:34.559Z,1011.04
2023-02-16T01:02:54.129Z,1011.04
2023-02-16T01:03:26.175Z,1011.04
2023-02-16T01:03:58.158Z,1011.24
2023-02-16T01:04:30.271Z,1011.24
2023-02-16T01:05:03.452Z,1011.14
2023-02-16T01:05:34.354Z,1011.14
2023-02-16T01:06:06.842Z,1011.04
2023-02-16T01:06:34.549Z,1011.14
2023-02-16T01:06:54.995Z,1011.14
2023-02-16T01:07:26.143Z,1011.14
2023-02-16T01:07:58.189Z,1011.24
2023-02-16T01:08:30.160Z,1011.24
2023-02-16T01:09:02.140Z,1011.04
2023-02-16T01:09:34.127Z,1011.04
2023-02-16T01:10:07.670Z,1011.24
2023-02-16T01:10:34.601Z,1010.94
2023-02-16T01:10:54.495Z,1010.94
2023-02-16T01:11:26.151Z,1010.94
2023-02-16T01:11:58.199Z,1011.14
2023-02-16T01:12:30.197Z,1011.14
2023-02-16T01:13:02.156Z,1011.04
2023-02-16T01:13:34.097Z,1011.04
2023-02-16T01:14:06.775Z,1010.84
2023-02-16T01:14:34.503Z,1011.04
2023-02-16T01:14:54.231Z,1011.04
2023-02-16T01:15:26.880Z,1011.04
2023-02-16T01:15:58.335Z,1011.24
2023-02-16T01:16:31.829Z,1011.24
2023-02-16T01:17:02.430Z,1011.14
2023-02-16T01:17:34.130Z,1011.14
2023-02-16T01:18:06.736Z,1011.24
2023-02-16T01:18:34.548Z,1010.94
2023-02-16T01:18:54.197Z,1010.94
2023-02-16T01:19:26.222Z,1010.94
2023-02-16T01:19:58.162Z,1010.94
2023-02-16T01:20:30.477Z,1010.94
2023-02-16T01:21:02.462Z,1010.73
2023-02-16T01:21:34.180Z,1010.73
2023-02-16T01:22:06.707Z,1010.84
2023-02-16T01:22:35.129Z,1010.63
2023-02-16T01:22:54.945Z,1010.63
2023-02-16T01:23:26.250Z,1010.63
2023-02-16T01:23:58.197Z,1010.63
2023-02-16T01:24:30.160Z,1010.63
2023-02-16T01:25:03.390Z,1010.94
2023-02-16T01:25:34.148Z,1010.94
2023-02-16T01:26:07.203Z,1010.73
2023-02-16T01:26:35.046Z,1010.94
2023-02-16T01:26:54.292Z,1010.94
2023-02-16T01:27:26.463Z,1010.94
2023-02-16T01:27:58.246Z,1010.84
2023-02-16T01:28:30.224Z,1010.84
2023-02-16T01:29:02.190Z,1011.04
2023-02-16T01:29:34.159Z,1011.04
2023-02-16T01:30:08.685Z,1010.84
2023-02-16T01:30:34.677Z,1010.84
2023-02-16T01:30:55.591Z,1010.84
2023-02-16T01:31:26.353Z,1010.84
2023-02-16T01:31:58.296Z,1010.94
2023-02-16T01:32:31.732Z,1010.94
2023-02-16T01:33:02.952Z,1010.94
2023-02-16T01:33:34.712Z,1010.94
2023-02-16T01:34:06.755Z,1010.84
2023-02-16T01:34:34.533Z,1010.94
2023-02-16T01:34:54.168Z,1010.94
2023-02-16T01:35:26.555Z,1010.94
2023-02-16T01:35:58.180Z,1011.04
2023-02-16T01:36:30.190Z,1011.04
2023-02-16T01:37:02.110Z,1011.04
2023-02-16T01:37:34.190Z,1011.04
2023-02-16T01:38:06.762Z,1011.04
2023-02-16T01:38:34.519Z,1010.73
2023-02-16T01:38:54.949Z,1010.73
2023-02-16T01:39:26.195Z,1010.73
2023-02-16T01:39:58.163Z,1010.94
2023-02-16T01:40:30.889Z,1010.94
2023-02-16T01:41:02.794Z,1010.94
2023-02-16T01:41:34.383Z,1010.94
2023-02-16T01:42:07.289Z,1010.94
2023-02-16T01:42:34.560Z,1010.84
2023-02-16T01:42:54.312Z,1010.84
2023-02-16T01:43:26.426Z,1010.84
2023-02-16T01:43:58.290Z,1010.94
2023-02-16T01:44:31.295Z,1010.94
2023-02-16T01:45:03.201Z,1010.84
2023-02-16T01:45:34.355Z,1010.84
2023-02-16T01:46:08.653Z,1010.94
2023-02-16T01:46:34.649Z,1010.84
2023-02-16T01:46:54.445Z,1010.84
2023-02-16T01:47:26.222Z,1010.84
2023-02-16T01:47:58.204Z,1010.84
2023-02-16T01:48:31.122Z,1010.84
2023-02-16T01:49:02.344Z,1010.43
2023-02-16T01:49:34.329Z,1010.43
2023-02-16T01:50:07.574Z,1010.84
2023-02-16T01:50:35.520Z,1010.73
2023-02-16T01:50:54.592Z,1010.73
2023-02-16T01:51:26.224Z,1010.73
2023-02-16T01:51:58.804Z,1010.73
2023-02-16T01:52:30.415Z,1010.73
2023-02-16T01:53:02.297Z,1010.84
2023-02-16T01:53:34.170Z,1010.84
2023-02-16T01:54:06.933Z,1010.63
2023-02-16T01:54:34.560Z,1010.94
2023-02-16T01:54:54.915Z,1010.94
2023-02-16T01:55:26.583Z,1010.94
2023-02-16T01:55:58.216Z,1010.94
2023-02-16T01:56:30.250Z,1010.94
2023-02-16T01:57:02.201Z,1010.84
2023-02-16T01:57:34.183Z,1010.84
2023-02-16T01:58:07.326Z,1010.84
2023-02-16T01:58:34.862Z,1010.73
2023-02-16T01:58:54.222Z,1010.73
2023-02-16T01:59:26.332Z,1010.73
2023-02-16T01:59:58.283Z,1010.53
2023-02-16T02:01:04.775Z,1010.53
2023-02-16T02:02:11.612Z,1010.53
2023-02-16T02:03:18.048Z,1010.53
2023-02-16T02:03:35.636Z,1010.73
2023-02-16T02:03:58.289Z,1010.73
2023-02-16T02:04:30.244Z,1010.73
2023-02-16T02:05:05.278Z,1010.63
2023-02-16T02:05:34.178Z,1010.63
2023-02-16T02:06:06.935Z,1010.63
2023-02-16T02:06:34.533Z,1010.73
2023-02-16T02:06:54.240Z,1010.73
2023-02-16T02:07:26.274Z,1010.73
2023-02-16T02:07:58.491Z,1010.43
2023-02-16T02:08:30.285Z,1010.43
2023-02-16T02:09:02.270Z,1010.63
2023-02-16T02:09:34.231Z,1010.63
2023-02-16T02:10:07.862Z,1010.43
2023-02-16T02:10:34.556Z,1010.63
2023-02-16T02:10:54.512Z,1010.63
2023-02-16T02:11:26.212Z,1010.63
2023-02-16T02:11:58.250Z,1010.73
2023-02-16T02:12:30.270Z,1010.73
2023-02-16T02:13:02.268Z,1010.63
2023-02-16T02:13:34.220Z,1010.63
2023-02-16T02:14:06.835Z,1010.63
2023-02-16T02:14:34.569Z,1010.63
2023-02-16T02:14:54.279Z,1010.63
2023-02-16T02:15:26.805Z,1010.63
2023-02-16T02:15:58.363Z,1010.53
2023-02-16T02:16:30.950Z,1010.53
2023-02-16T02:17:02.232Z,1010.63
2023-02-16T02:17:34.210Z,1010.63
2023-02-16T02:18:07.013Z,1010.53
2023-02-16T02:18:34.510Z,1010.63
2023-02-16T02:18:54.249Z,1010.63
2023-02-16T02:19:26.228Z,1010.63
2023-02-16T02:19:58.184Z,1010.43
2023-02-16T02:20:30.546Z,1010.43
2023-02-16T02:21:02.593Z,1010.63
2023-02-16T02:21:34.192Z,1010.63
2023-02-16T02:22:06.402Z,1010.63
2023-02-16T02:22:34.532Z,1010.53
2023-02-16T02:22:55.038Z,1010.53
2023-02-16T02:23:26.364Z,1010.53
2023-02-16T02:23:58.227Z,1010.63
2023-02-16T02:24:30.264Z,1010.63
2023-02-16T02:25:03.475Z,1010.63
2023-02-16T02:25:34.231Z,1010.63
2023-02-16T02:26:09.151Z,1010.53
2023-02-16T02:26:34.525Z,1010.63
2023-02-16T02:26:54.191Z,1010.63
2023-02-16T02:27:26.174Z,1010.63
2023-02-16T02:27:58.207Z,1010.43
2023-02-16T02:28:30.288Z,1010.43
2023-02-16T02:29:02.231Z,1010.53
2023-02-16T02:29:34.500Z,1010.53
2023-02-16T02:30:09.013Z,1010.73
2023-02-16T02:30:35.060Z,1010.63
2023-02-16T02:30:54.733Z,1010.63
2023-02-16T02:31:26.407Z,1010.63
2023-02-16T02:31:58.413Z,1010.53
2023-02-16T02:32:30.889Z,1010.53
2023-02-16T02:33:03.309Z,1010.43
2023-02-16T02:33:34.241Z,1010.43
2023-02-16T02:34:06.934Z,1010.63
2023-02-16T02:34:34.523Z,1010.53
2023-02-16T02:34:54.288Z,1010.53
2023-02-16T02:35:26.655Z,1010.53
2023-02-16T02:35:58.226Z,1010.73
2023-02-16T02:36:30.274Z,1010.73
2023-02-16T02:37:02.220Z,1010.63
2023-02-16T02:37:34.223Z,1010.63
2023-02-16T02:38:06.879Z,1010.33
2023-02-16T02:38:34.476Z,1010.63
2023-02-16T02:38:54.976Z,1010.63
2023-02-16T02:39:26.225Z,1010.63
2023-02-16T02:39:58.522Z,1010.53
2023-02-16T02:40:30.676Z,1010.53
2023-02-16T02:41:02.417Z,1010.43
2023-02-16T02:41:34.234Z,1010.43
2023-02-16T02:42:07.413Z,1010.63
2023-02-16T02:42:34.504Z,1010.43
2023-02-16T02:42:54.247Z,1010.43
2023-02-16T02:43:26.182Z,1010.43
2023-02-16T02:43:58.200Z,1010.73
2023-02-16T02:44:30.216Z,1010.73
2023-02-16T02:45:03.911Z,1010.73
2023-02-16T02:45:34.201Z,1010.73
2023-02-16T02:46:08.279Z,1010.63
2023-02-16T02:46:35.040Z,1010.73
2023-02-16T02:46:54.475Z,1010.73
2023-02-16T02:47:26.187Z,1010.73
2023-02-16T02:47:58.196Z,1010.33
2023-02-16T02:48:31.013Z,1010.33
2023-02-16T02:49:02.201Z,1010.43
2023-02-16T02:49:34.176Z,1010.43
2023-02-16T02:50:07.216Z,1010.23
2023-02-16T02:50:35.345Z,1010.53
2023-02-16T02:50:54.492Z,1010.53
2023-02-16T02:51:26.172Z,1010.53
2023-02-16T02:51:58.199Z,1010.53
2023-02-16T02:52:30.269Z,1010.53
2023-02-16T02:53:02.188Z,1010.53
2023-02-16T02:53:34.229Z,1010.53
2023-02-16T02:54:06.770Z,1010.53
2023-02-16T02:54:34.500Z,1010.43
2023-02-16T02:54:55.046Z,1010.43
2023-02-16T02:55:26.652Z,1010.43
2023-02-16T02:55:58.216Z,1010.63
2023-02-16T02:56:30.237Z,1010.63
2023-02-16T02:57:02.267Z,1010.53
2023-02-16T02:57:34.190Z,1010.53
2023-02-16T02:58:07.373Z,1010.53
2023-02-16T02:58:35.082Z,1010.53
2023-02-16T02:58:54.257Z,1010.53
2023-02-16T02:59:26.194Z,1010.53
2023-02-16T02:59:58.210Z,1010.63
2023-02-16T03:00:30.812Z,1010.63
2023-02-16T03:01:02.682Z,1010.43
2023-02-16T03:01:34.590Z,1010.43
2023-02-16T03:02:06.767Z,1010.43
2023-02-16T03:02:35.302Z,1010.43
2023-02-16T03:02:54.281Z,1010.43
2023-02-16T03:03:26.218Z,1010.43
2023-02-16T03:03:58.274Z,1010.12
2023-02-16T03:04:30.902Z,1010.12
2023-02-16T03:05:03.441Z,1010.33
2023-02-16T03:05:34.210Z,1010.33
2023-02-16T03:06:06.988Z,1010.53
2023-02-16T03:06:34.473Z,1010.43
2023-02-16T03:06:54.213Z,1010.43
2023-02-16T03:07:26.220Z,1010.43
2023-02-16T03:07:58.245Z,1010.33
2023-02-16T03:08:30.223Z,1010.33
2023-02-16T03:09:02.184Z,1010.23
2023-02-16T03:09:34.206Z,1010.23
2023-02-16T03:10:07.096Z,1010.33
2023-02-16T03:10:34.486Z,1010.53
2023-02-16T03:10:55.195Z,1010.53
2023-02-16T03:11:26.443Z,1010.53
2023-02-16T03:11:58.229Z,1010.43
2023-02-16T03:12:30.286Z,1010.43
2023-02-16T03:13:02.187Z,1010.43
2023-02-16T03:13:34.233Z,1010.43
2023-02-16T03:14:07.727Z,1010.43
2023-02-16T03:14:34.483Z,1010.43
2023-02-16T03:14:54.242Z,1010.43
2023-02-16T03:15:26.770Z,1010.43
2023-02-16T03:15:58.260Z,1010.33
2023-02-16T03:16:30.365Z,1010.33
2023-02-16T03:17:02.174Z,1010.53
2023-02-16T03:17:34.205Z,1010.53
2023-02-16T03:18:06.702Z,1010.43
2023-02-16T03:18:34.475Z,1010.53
2023-02-16T03:18:54.279Z,1010.53
2023-02-16T03:19:26.220Z,1010.53
2023-02-16T03:19:58.306Z,1010.53
2023-02-16T03:20:32.250Z,1010.53
2023-02-16T03:21:02.563Z,1010.63
2023-02-16T03:21:34.552Z,1010.63
2023-02-16T03:22:06.830Z,1010.63
2023-02-16T03:22:34.484Z,1010.53
2023-02-16T03:22:54.246Z,1010.53
2023-02-16T03:23:26.224Z,1010.53
2023-02-16T03:23:58.209Z,1010.33
2023-02-16T03:24:30.313Z,1010.33
2023-02-16T03:25:03.437Z,1010.43
2023-02-16T03:25:34.909Z,1010.43
2023-02-16T03:26:06.824Z,1010.43
2023-02-16T03:26:35.120Z,1010.43
2023-02-16T03:26:54.905Z,1010.43
2023-02-16T03:27:26.244Z,1010.43
2023-02-16T03:27:58.213Z,1010.33
2023-02-16T03:28:30.260Z,1010.33
2023-02-16T03:29:02.219Z,1010.33
2023-02-16T03:29:34.237Z,1010.33
2023-02-16T03:30:08.603Z,1010.43
2023-02-16T03:30:34.837Z,1010.43
2023-02-16T03:30:54.641Z,1010.43
2023-02-16T03:31:26.326Z,1010.43
2023-02-16T03:31:58.633Z,1010.53
2023-02-16T03:32:30.335Z,1010.53
2023-02-16T03:33:02.935Z,1010.43
2023-02-16T03:33:34.221Z,1010.43
2023-02-16T03:34:06.748Z,1010.43
2023-02-16T03:34:34.462Z,1010.53
2023-02-16T03:34:54.308Z,1010.53
2023-02-16T03:35:26.583Z,1010.53
2023-02-16T03:35:58.321Z,1010.43
2023-02-16T03:36:30.997Z,1010.43
2023-02-16T03:37:02.245Z,1010.43
2023-02-16T03:37:34.262Z,1010.43
2023-02-16T03:38:06.804Z,1010.43
2023-02-16T03:38:34.470Z,1010.43
2023-02-16T03:38:54.292Z,1010.43
2023-02-16T03:39:26.265Z,1010.43
2023-02-16T03:39:58.257Z,1010.63
2023-02-16T03:40:30.575Z,1010.63
2023-02-16T03:41:02.491Z,1010.73
2023-02-16T03:41:34.237Z,1010.73
2023-02-16T03:42:06.719Z,1010.63
2023-02-16T03:42:34.454Z,1010.73
2023-02-16T03:42:55.112Z,1010.73
2023-02-16T03:43:26.262Z,1010.73
2023-02-16T03:43:58.281Z,1010.53
2023-02-16T03:44:30.347Z,1010.53
2023-02-16T03:45:03.541Z,1010.73
2023-02-16T03:45:34.301Z,1010.73
2023-02-16T03:46:07.934Z,1010.73
2023-02-16T03:46:34.767Z,1010.53
2023-02-16T03:46:54.269Z,1010.53
2023-02-16T03:47:26.215Z,1010.53
2023-02-16T03:47:58.292Z,1010.53
2023-02-16T03:48:30.302Z,1010.53
2023-02-16T03:49:02.247Z,1010.53
2023-02-16T03:49:34.600Z,1010.53
2023-02-16T03:50:07.031Z,1010.63
2023-02-16T03:50:34.492Z,1010.53
2023-02-16T03:50:54.549Z,1010.53
2023-02-16T03:51:26.248Z,1010.53
2023-02-16T03:51:58.308Z,1010.63
2023-02-16T03:52:31.140Z,1010.63
2023-02-16T03:53:02.214Z,1010.43
2023-02-16T03:53:34.619Z,1010.43
2023-02-16T03:54:06.791Z,1010.63
2023-02-16T03:54:34.554Z,1010.53
2023-02-16T03:54:54.251Z,1010.53
2023-02-16T03:55:26.568Z,1010.53
2023-02-16T03:55:58.291Z,1010.43
2023-02-16T03:56:31.090Z,1010.43
2023-02-16T03:57:02.231Z,1010.43
2023-02-16T03:57:34.265Z,1010.43
2023-02-16T03:58:06.792Z,1010.23
2023-02-16T03:58:34.466Z,1010.43
2023-02-16T03:58:54.335Z,1010.43
2023-02-16T03:59:26.293Z,1010.43
2023-02-16T03:59:59.352Z,1010.43
2023-02-16T04:00:30.859Z,1010.43
2023-02-16T04:01:02.787Z,1010.43
2023-02-16T04:01:34.298Z,1010.43
2023-02-16T04:02:06.846Z,1010.53
2023-02-16T04:02:34.780Z,1010.63
2023-02-16T04:02:55.027Z,1010.63
2023-02-16T04:03:26.269Z,1010.63
2023-02-16T04:03:58.359Z,1010.84
2023-02-16T04:04:30.406Z,1010.84
2023-02-16T04:05:03.612Z,1010.73
2023-02-16T04:05:34.545Z,1010.73
2023-02-16T04:06:08.052Z,1010.84
2023-02-16T04:06:34.472Z,1010.84
2023-02-16T04:06:54.281Z,1010.84
2023-02-16T04:07:26.250Z,1010.84
2023-02-16T04:07:58.313Z,1010.73
2023-02-16T04:08:30.367Z,1010.73
2023-02-16T04:09:02.272Z,1010.73
2023-02-16T04:09:34.264Z,1010.73
2023-02-16T04:10:07.233Z,1010.84
2023-02-16T04:10:34.479Z,1010.73
2023-02-16T04:10:54.559Z,1010.73
2023-02-16T04:11:26.228Z,1010.73
2023-02-16T04:11:58.288Z,1010.84
2023-02-16T04:12:31.037Z,1010.84
2023-02-16T04:13:02.794Z,1010.63
2023-02-16T04:13:34.783Z,1010.63
2023-02-16T04:14:06.760Z,1010.73
2023-02-16T04:14:34.480Z,1010.63
2023-02-16T04:14:54.405Z,1010.63
2023-02-16T04:15:26.808Z,1010.63
2023-02-16T04:15:58.311Z,1010.84
2023-02-16T04:16:30.400Z,1010.84
2023-02-16T04:17:02.228Z,1010.63
2023-02-16T04:17:34.296Z,1010.63
2023-02-16T04:18:06.973Z,1010.63
2023-02-16T04:18:34.572Z,1010.73
2023-02-16T04:18:54.937Z,1010.73
2023-02-16T04:19:26.202Z,1010.73
2023-02-16T04:19:58.262Z,1010.63
2023-02-16T04:20:30.570Z,1010.63
2023-02-16T04:21:02.769Z,1010.63
2023-02-16T04:21:34.286Z,1010.63
2023-02-16T04:22:07.535Z,1010.63
2023-02-16T04:22:34.455Z,1010.73
2023-02-16T04:22:54.304Z,1010.73
2023-02-16T04:23:26.243Z,1010.73
2023-02-16T04:23:58.621Z,1010.53
2023-02-16T04:24:30.357Z,1010.53
2023-02-16T04:25:03.202Z,1010.84
2023-02-16T04:25:34.259Z,1010.84
2023-02-16T04:26:06.931Z,1010.73
2023-02-16T04:26:34.501Z,1010.63
2023-02-16T04:26:54.311Z,1010.63
2023-02-16T04:27:26.245Z,1010.63
2023-02-16T04:27:58.314Z,1010.63
2023-02-16T04:28:31.021Z,1010.63
2023-02-16T04:29:02.275Z,1010.84
2023-02-16T04:29:34.361Z,1010.84
2023-02-16T04:30:08.554Z,1010.53
2023-02-16T04:30:34.661Z,1010.53
2023-02-16T04:30:54.806Z,1010.53
2023-02-16T04:31:26.420Z,1010.53
2023-02-16T04:31:58.528Z,1010.73
2023-02-16T04:32:30.363Z,1010.73
2023-02-16T04:33:03.079Z,1010.63
2023-02-16T04:33:34.706Z,1010.63
2023-02-16T04:34:06.812Z,1010.73
2023-02-16T04:34:34.508Z,1010.73
2023-02-16T04:34:54.945Z,1010.73
2023-02-16T04:35:26.542Z,1010.73
2023-02-16T04:35:58.356Z,1010.63
2023-02-16T04:36:30.328Z,1010.63
2023-02-16T04:37:02.361Z,1010.53
2023-02-16T04:37:34.268Z,1010.53
2023-02-16T04:38:07.574Z,1010.43
2023-02-16T04:38:34.503Z,1010.53
2023-02-16T04:38:54.327Z,1010.53
2023-02-16T04:39:26.273Z,1010.53
2023-02-16T04:39:58.321Z,1010.73
2023-02-16T04:40:30.609Z,1010.73
2023-02-16T04:41:02.755Z,1010.53
2023-02-16T04:41:34.309Z,1010.53
2023-02-16T04:42:06.893Z,1010.43
2023-02-16T04:42:34.452Z,1010.43
2023-02-16T04:42:54.299Z,1010.43
2023-02-16T04:43:26.251Z,1010.43
2023-02-16T04:43:58.289Z,1010.43
2023-02-16T04:44:31.156Z,1010.43
2023-02-16T04:45:03.853Z,1010.43
2023-02-16T04:45:34.312Z,1010.43
2023-02-16T04:46:08.239Z,1010.53
2023-02-16T04:46:34.455Z,1010.53
2023-02-16T04:46:54.305Z,1010.53
2023-02-16T04:47:26.320Z,1010.53
2023-02-16T04:47:58.331Z,1010.53
2023-02-16T04:48:30.340Z,1010.53
2023-02-16T04:49:02.343Z,1010.43
2023-02-16T04:49:34.732Z,1010.43
2023-02-16T04:50:07.153Z,1010.53
2023-02-16T04:50:34.458Z,1010.33
2023-02-16T04:50:55.289Z,1010.33
2023-02-16T04:51:26.268Z,1010.33
2023-02-16T04:51:58.293Z,1010.43
2023-02-16T04:52:30.346Z,1010.43
2023-02-16T04:53:02.253Z,1010.53
2023-02-16T04:53:34.276Z,1010.53
2023-02-16T04:54:07.644Z,1010.53
2023-02-16T04:54:34.463Z,1010.43
2023-02-16T04:54:54.347Z,1010.43
2023-02-16T04:55:26.584Z,1010.43
2023-02-16T04:55:58.347Z,1010.43
2023-02-16T04:56:30.338Z,1010.43
2023-02-16T04:57:02.312Z,1010.53
2023-02-16T04:57:34.407Z,1010.53
2023-02-16T04:58:06.392Z,1010.63
2023-02-16T04:58:34.488Z,1010.53
2023-02-16T04:58:54.434Z,1010.53
2023-02-16T04:59:26.246Z,1010.53
2023-02-16T04:59:58.284Z,1010.33
2023-02-16T05:00:31.583Z,1010.33
2023-02-16T05:01:02.586Z,1010.33
2023-02-16T05:01:35.257Z,1010.33
2023-02-16T05:02:05.865Z,1010.33
2023-02-16T05:02:33.920Z,1010.53
2023-02-16T05:02:53.816Z,1010.53
2023-02-16T05:03:25.820Z,1010.53
2023-02-16T05:03:57.889Z,1010.63
2023-02-16T05:04:29.951Z,1010.63
2023-02-16T05:05:02.265Z,1010.53
2023-02-16T05:05:34.068Z,1010.53
2023-02-16T05:06:06.294Z,1010.43
2023-02-16T05:06:34.464Z,1010.53
2023-02-16T05:06:56.254Z,1010.53
2023-02-16T05:07:27.267Z,1010.53
2023-02-16T05:07:58.499Z,1010.53
2023-02-16T05:08:30.338Z,1010.53
2023-02-16T05:09:02.333Z,1010.53
2023-02-16T05:09:34.351Z,1010.53
2023-02-16T05:10:07.262Z,1010.53
2023-02-16T05:10:34.465Z,1010.33
2023-02-16T05:10:54.512Z,1010.33
2023-02-16T05:11:26.773Z,1010.33
2023-02-16T05:11:58.360Z,1010.43
2023-02-16T05:12:30.271Z,1010.43
2023-02-16T05:13:02.357Z,1010.33
2023-02-16T05:13:34.309Z,1010.33
2023-02-16T05:14:06.413Z,1010.33
2023-02-16T05:14:34.568Z,1010.53
2023-02-16T05:14:54.260Z,1010.53
2023-02-16T05:15:27.345Z,1010.53
2023-02-16T05:15:58.763Z,1010.23
2023-02-16T05:16:31.120Z,1010.23
2023-02-16T05:17:02.312Z,1010.53
2023-02-16T05:17:34.335Z,1010.53
2023-02-16T05:18:06.333Z,1010.23
2023-02-16T05:18:35.145Z,1010.53
2023-02-16T05:18:55.907Z,1010.53
2023-02-16T05:19:26.935Z,1010.53
2023-02-16T05:19:58.432Z,1010.43
2023-02-16T05:20:30.601Z,1010.43
2023-02-16T05:21:02.704Z,1010.33
2023-02-16T05:21:34.299Z,1010.33
2023-02-16T05:22:06.322Z,1010.33
2023-02-16T05:22:34.533Z,1010.43
2023-02-16T05:22:55.102Z,1010.43
2023-02-16T05:23:26.765Z,1010.43
2023-02-16T05:23:58.384Z,1010.53
2023-02-16T05:24:30.391Z,1010.53
2023-02-16T05:25:03.529Z,1010.53
2023-02-16T05:25:34.288Z,1010.53
2023-02-16T05:26:08.081Z,1010.33
2023-02-16T05:26:34.437Z,1010.63
2023-02-16T05:26:54.308Z,1010.63
2023-02-16T05:27:26.827Z,1010.63
2023-02-16T05:27:58.432Z,1010.63
2023-02-16T05:28:30.377Z,1010.63
2023-02-16T05:29:02.378Z,1010.53
2023-02-16T05:29:34.315Z,1010.53
2023-02-16T05:30:07.568Z,1010.53
2023-02-16T05:30:34.579Z,1010.63
2023-02-16T05:30:54.569Z,1010.63
2023-02-16T05:31:26.970Z,1010.63
2023-02-16T05:31:58.479Z,1010.43
2023-02-16T05:32:33.803Z,1010.43
2023-02-16T05:33:02.948Z,1010.53
2023-02-16T05:33:34.323Z,1010.53
2023-02-16T05:34:06.307Z,1010.53
2023-02-16T05:34:34.460Z,1010.63
2023-02-16T05:34:54.336Z,1010.63
2023-02-16T05:35:27.042Z,1010.63
2023-02-16T05:35:58.413Z,1010.43
2023-02-16T05:36:30.335Z,1010.43
2023-02-16T05:37:02.381Z,1010.53
2023-02-16T05:37:34.532Z,1010.53
2023-02-16T05:38:06.319Z,1010.33
2023-02-16T05:38:34.520Z,1010.53
2023-02-16T05:38:54.986Z,1010.53
2023-02-16T05:39:26.789Z,1010.53
2023-02-16T05:39:58.386Z,1010.53
2023-02-16T05:40:30.678Z,1010.53
2023-02-16T05:41:02.651Z,1010.43
2023-02-16T05:41:34.362Z,1010.43
2023-02-16T05:42:07.085Z,1010.43
2023-02-16T05:42:34.779Z,1010.33
2023-02-16T05:42:54.370Z,1010.33
2023-02-16T05:43:26.942Z,1010.33
2023-02-16T05:43:58.549Z,1010.63
2023-02-16T05:44:30.336Z,1010.63
2023-02-16T05:45:03.745Z,1010.63
2023-02-16T05:45:34.370Z,1010.63
2023-02-16T05:46:07.148Z,1010.84
2023-02-16T05:46:34.616Z,1010.43
2023-02-16T05:46:54.406Z,1010.43
2023-02-16T05:47:26.785Z,1010.43
2023-02-16T05:47:58.393Z,1010.43
2023-02-16T05:48:32.706Z,1010.43
2023-02-16T05:49:02.385Z,1010.33
2023-02-16T05:49:34.324Z,1010.33
2023-02-16T05:50:06.579Z,1010.43
2023-02-16T05:50:34.471Z,1010.33
2023-02-16T05:50:54.581Z,1010.33
2023-02-16T05:51:26.819Z,1010.33
2023-02-16T05:51:58.421Z,1010.73
2023-02-16T05:52:30.327Z,1010.73
2023-02-16T05:53:02.370Z,1010.53
2023-02-16T05:53:34.384Z,1010.53
2023-02-16T05:54:06.372Z,1010.53
2023-02-16T05:54:34.431Z,1010.53
2023-02-16T05:54:55.009Z,1010.53
2023-02-16T05:55:27.054Z,1010.53
2023-02-16T05:55:58.389Z,1010.43
2023-02-16T05:56:30.327Z,1010.43
2023-02-16T05:57:02.366Z,1010.63
2023-02-16T05:57:34.625Z,1010.63
2023-02-16T05:58:06.995Z,1010.73
2023-02-16T05:58:34.770Z,1010.43
2023-02-16T05:58:54.339Z,1010.43
2023-02-16T05:59:26.847Z,1010.43
2023-02-16T05:59:58.410Z,1010.43
2023-02-16T06:00:30.908Z,1010.43
2023-02-16T06:01:02.632Z,1010.84
2023-02-16T06:01:34.942Z,1010.84
2023-02-16T06:02:06.351Z,1010.63
2023-02-16T06:02:34.534Z,1010.63
2023-02-16T06:02:54.376Z,1010.63
2023-02-16T06:03:26.839Z,1010.63